sensor_id;sensor_type;location;lat;lon;timestamp;pressure;altitude;pressure_sealevel;temperature;humidity
74578;BME280;63173;49.086;33.418;2023-01-13T00:00:47;101560.50;;;-4.09;87.78
74578;BME280;63173;49.086;33.418;2023-01-13T00:03:13;101566.00;;;-4.02;87.60
74578;BME280;63173;49.086;33.418;2023-01-13T00:05:39;101560.50;;;-4.09;87.97
74578;BME280;63173;49.086;33.418;2023-01-13T00:08:05;101558.06;;;-3.94;87.67
74578;BME280;63173;49.086;33.418;2023-01-13T00:10:34;101548.13;;;-3.92;87.27
74578;BME280;63173;49.086;33.418;2023-01-13T00:13:00;101548.97;;;-3.84;87.09
74578;BME280;63173;49.086;33.418;2023-01-13T00:15:27;101548.06;;;-4.08;87.61
74578;BME280;63173;49.086;33.418;2023-01-13T00:17:53;101548.66;;;-3.80;87.11
74578;BME280;63173;49.086;33.418;2023-01-13T00:20:18;101544.63;;;-3.93;86.89
74578;BME280;63173;49.086;33.418;2023-01-13T00:22:44;101540.31;;;-4.02;87.30
74578;BME280;63173;49.086;33.418;2023-01-13T00:25:09;101554.09;;;-3.90;87.49
74578;BME280;63173;49.086;33.418;2023-01-13T00:27:35;101540.66;;;-3.89;86.87
74578;BME280;63173;49.086;33.418;2023-01-13T00:30:01;101538.00;;;-3.89;87.05
74578;BME280;63173;49.086;33.418;2023-01-13T00:32:26;101533.16;;;-4.01;87.28
74578;BME280;63173;49.086;33.418;2023-01-13T00:34:52;101533.81;;;-3.99;87.51
74578;BME280;63173;49.086;33.418;2023-01-13T00:37:18;101530.50;;;-4.09;87.32
74578;BME280;63173;49.086;33.418;2023-01-13T00:39:43;101529.50;;;-4.08;87.36
74578;BME280;63173;49.086;33.418;2023-01-13T00:42:10;101532.00;;;-4.15;88.03
74578;BME280;63173;49.086;33.418;2023-01-13T00:44:54;101524.16;;;-4.16;88.28
74578;BME280;63173;49.086;33.418;2023-01-13T00:47:19;101533.16;;;-4.01;87.42
74578;BME280;63173;49.086;33.418;2023-01-13T00:49:44;101533.84;;;-4.07;87.84
74578;BME280;63173;49.086;33.418;2023-01-13T00:52:11;101525.50;;;-4.12;87.59
74578;BME280;63173;49.086;33.418;2023-01-13T00:54:36;101539.81;;;-3.97;87.64
74578;BME280;63173;49.086;33.418;2023-01-13T00:57:03;101541.13;;;-4.01;87.22
74578;BME280;63173;49.086;33.418;2023-01-13T00:59:28;101529.84;;;-4.11;87.28
74578;BME280;63173;49.086;33.418;2023-01-13T01:01:54;101538.63;;;-4.03;87.13
74578;BME280;63173;49.086;33.418;2023-01-13T01:04:19;101539.81;;;-4.05;87.29
74578;BME280;63173;49.086;33.418;2023-01-13T01:06:45;101538.47;;;-4.09;87.27
74578;BME280;63173;49.086;33.418;2023-01-13T01:09:13;101531.31;;;-4.17;87.69
74578;BME280;63173;49.086;33.418;2023-01-13T01:11:39;101528.97;;;-4.20;87.58
74578;BME280;63173;49.086;33.418;2023-01-13T01:14:05;101524.84;;;-4.14;87.84
74578;BME280;63173;49.086;33.418;2023-01-13T01:16:32;101520.00;;;-4.27;88.32
74578;BME280;63173;49.086;33.418;2023-01-13T01:18:58;101523.03;;;-4.14;87.81
74578;BME280;63173;49.086;33.418;2023-01-13T01:21:24;101525.50;;;-4.12;88.04
74578;BME280;63173;49.086;33.418;2023-01-13T01:23:50;101523.19;;;-4.15;87.57
74578;BME280;63173;49.086;33.418;2023-01-13T01:26:20;101523.72;;;-4.04;88.08
74578;BME280;63173;49.086;33.418;2023-01-13T01:28:47;101523.34;;;-4.09;87.62
74578;BME280;63173;49.086;33.418;2023-01-13T01:31:18;101516.38;;;-4.18;88.12
74578;BME280;63173;49.086;33.418;2023-01-13T01:33:44;101509.94;;;-3.99;87.66
74578;BME280;63173;49.086;33.418;2023-01-13T01:36:14;101508.97;;;-3.98;87.38
74578;BME280;63173;49.086;33.418;2023-01-13T01:38:39;101510.78;;;-3.99;86.94
74578;BME280;63173;49.086;33.418;2023-01-13T01:41:05;101508.78;;;-4.05;87.52
74578;BME280;63173;49.086;33.418;2023-01-13T01:43:52;101502.34;;;-3.94;87.58
74578;BME280;63173;49.086;33.418;2023-01-13T01:46:43;101509.75;;;-4.14;88.16
74578;BME280;63173;49.086;33.418;2023-01-13T01:49:15;101506.66;;;-3.93;88.15
74578;BME280;63173;49.086;33.418;2023-01-13T01:52:07;101504.13;;;-4.03;87.75
74578;BME280;63173;49.086;33.418;2023-01-13T01:54:46;101505.09;;;-4.20;88.39
74578;BME280;63173;49.086;33.418;2023-01-13T01:57:15;101491.69;;;-4.10;88.39
74578;BME280;63173;49.086;33.418;2023-01-13T01:59:42;101492.34;;;-4.16;88.18
74578;BME280;63173;49.086;33.418;2023-01-13T02:02:09;101487.53;;;-4.21;88.69
74578;BME280;63173;49.086;33.418;2023-01-13T02:04:38;101504.97;;;-4.18;88.74
74578;BME280;63173;49.086;33.418;2023-01-13T02:07:05;101495.38;;;-4.03;88.06
74578;BME280;63173;49.086;33.418;2023-01-13T02:09:31;101497.88;;;-3.86;87.57
74578;BME280;63173;49.086;33.418;2023-01-13T02:11:57;101494.38;;;-3.78;87.50
74578;BME280;63173;49.086;33.418;2023-01-13T02:14:42;101499.66;;;-4.10;87.75
74578;BME280;63173;49.086;33.418;2023-01-13T02:20:02;101493.19;;;-4.08;88.19
74578;BME280;63173;49.086;33.418;2023-01-13T02:38:10;101484.09;;;-4.05;88.11
74578;BME280;63173;49.086;33.418;2023-01-13T02:40:59;101488.56;;;-4.06;88.10
74578;BME280;63173;49.086;33.418;2023-01-13T02:43:49;101485.56;;;-4.11;88.37
74578;BME280;63173;49.086;33.418;2023-01-13T02:49:18;101489.06;;;-4.02;88.22
74578;BME280;63173;49.086;33.418;2023-01-13T02:51:46;101489.69;;;-4.08;88.32
74578;BME280;63173;49.086;33.418;2023-01-13T02:54:16;101482.75;;;-4.09;88.31
74578;BME280;63173;49.086;33.418;2023-01-13T02:56:46;101470.47;;;-4.18;88.27
74578;BME280;63173;49.086;33.418;2023-01-13T02:59:13;101480.75;;;-4.15;88.74
74578;BME280;63173;49.086;33.418;2023-01-13T03:01:38;101487.22;;;-4.10;88.17
74578;BME280;63173;49.086;33.418;2023-01-13T03:04:12;101481.72;;;-4.24;88.85
74578;BME280;63173;49.086;33.418;2023-01-13T03:06:52;101484.03;;;-4.21;88.86
74578;BME280;63173;49.086;33.418;2023-01-13T03:09:32;101486.88;;;-4.15;88.63
74578;BME280;63173;49.086;33.418;2023-01-13T03:12:31;101481.88;;;-4.26;88.91
74578;BME280;63173;49.086;33.418;2023-01-13T03:18:48;101487.03;;;-4.16;88.51
74578;BME280;63173;49.086;33.418;2023-01-13T03:23:32;101478.75;;;-4.13;88.55
74578;BME280;63173;49.086;33.418;2023-01-13T03:26:07;101481.91;;;-4.10;87.95
74578;BME280;63173;49.086;33.418;2023-01-13T03:28:39;101471.78;;;-4.14;87.56
74578;BME280;63173;49.086;33.418;2023-01-13T03:31:20;101472.59;;;-4.22;88.27
74578;BME280;63173;49.086;33.418;2023-01-13T03:33:58;101482.91;;;-4.19;88.64
74578;BME280;63173;49.086;33.418;2023-01-13T03:36:27;101485.22;;;-4.16;88.43
74578;BME280;63173;49.086;33.418;2023-01-13T03:38:58;101483.72;;;-4.26;88.74
74578;BME280;63173;49.086;33.418;2023-01-13T03:41:31;101480.25;;;-4.19;88.51
74578;BME280;63173;49.086;33.418;2023-01-13T03:47:04;101482.38;;;-4.14;88.86
74578;BME280;63173;49.086;33.418;2023-01-13T03:49:39;101491.63;;;-4.34;89.07
74578;BME280;63173;49.086;33.418;2023-01-13T03:52:09;101481.53;;;-4.31;89.69
74578;BME280;63173;49.086;33.418;2023-01-13T03:54:47;101476.59;;;-4.18;89.07
74578;BME280;63173;49.086;33.418;2023-01-13T03:57:15;101476.94;;;-4.13;89.01
74578;BME280;63173;49.086;33.418;2023-01-13T03:59:45;101479.09;;;-4.08;89.20
74578;BME280;63173;49.086;33.418;2023-01-13T04:02:49;101473.97;;;-3.94;89.11
74578;BME280;63173;49.086;33.418;2023-01-13T04:05:16;101474.31;;;-3.97;88.36
74578;BME280;63173;49.086;33.418;2023-01-13T04:07:54;101470.47;;;-4.02;88.51
74578;BME280;63173;49.086;33.418;2023-01-13T04:10:27;101470.63;;;-4.12;89.32
74578;BME280;63173;49.086;33.418;2023-01-13T04:13:00;101466.31;;;-4.21;88.81
74578;BME280;63173;49.086;33.418;2023-01-13T04:15:29;101469.47;;;-4.17;89.79
74578;BME280;63173;49.086;33.418;2023-01-13T04:18:16;101467.97;;;-4.12;89.10
74578;BME280;63173;49.086;33.418;2023-01-13T04:20:43;101476.28;;;-4.15;90.04
74578;BME280;63173;49.086;33.418;2023-01-13T04:23:10;101475.44;;;-4.15;89.42
74578;BME280;63173;49.086;33.418;2023-01-13T04:25:38;101479.94;;;-4.08;89.33
74578;BME280;63173;49.086;33.418;2023-01-13T04:28:04;101469.84;;;-3.88;89.16
74578;BME280;63173;49.086;33.418;2023-01-13T04:30:30;101476.28;;;-3.99;89.00
74578;BME280;63173;49.086;33.418;2023-01-13T04:32:55;101467.84;;;-3.94;89.36
74578;BME280;63173;49.086;33.418;2023-01-13T04:35:20;101471.31;;;-4.02;89.15
74578;BME280;63173;49.086;33.418;2023-01-13T04:37:46;101461.50;;;-4.17;89.72
74578;BME280;63173;49.086;33.418;2023-01-13T04:40:11;101464.84;;;-3.99;89.62
74578;BME280;63173;49.086;33.418;2023-01-13T04:42:37;101468.47;;;-4.08;89.60
74578;BME280;63173;49.086;33.418;2023-01-13T04:45:03;101465.81;;;-4.08;89.94
74578;BME280;63173;49.086;33.418;2023-01-13T04:47:28;101466.84;;;-3.93;90.10
74578;BME280;63173;49.086;33.418;2023-01-13T04:49:54;101466.00;;;-4.02;89.78
74578;BME280;63173;49.086;33.418;2023-01-13T04:52:19;101466.84;;;-3.85;89.99
74578;BME280;63173;49.086;33.418;2023-01-13T04:54:44;101465.84;;;-3.84;89.94
74578;BME280;63173;49.086;33.418;2023-01-13T04:57:10;101470.81;;;-3.65;89.59
74578;BME280;63173;49.086;33.418;2023-01-13T04:59:35;101480.13;;;-3.61;88.93
74578;BME280;63173;49.086;33.418;2023-01-13T05:02:01;101474.81;;;-3.77;89.43
74578;BME280;63173;49.086;33.418;2023-01-13T05:04:26;101477.13;;;-3.82;89.65
74578;BME280;63173;49.086;33.418;2023-01-13T05:06:51;101478.97;;;-3.83;89.64
74578;BME280;63173;49.086;33.418;2023-01-13T05:09:17;101473.00;;;-3.85;90.01
74578;BME280;63173;49.086;33.418;2023-01-13T05:11:42;101475.47;;;-3.91;90.19
74578;BME280;63173;49.086;33.418;2023-01-13T05:14:26;101484.78;;;-3.71;90.26
74578;BME280;63173;49.086;33.418;2023-01-13T05:17:17;101472.97;;;-3.76;90.44
74578;BME280;63173;49.086;33.418;2023-01-13T05:19:44;101475.47;;;-3.67;90.04
74578;BME280;63173;49.086;33.418;2023-01-13T05:22:09;101477.28;;;-3.59;90.66
74578;BME280;63173;49.086;33.418;2023-01-13T05:24:53;101484.44;;;-3.68;90.86
74578;BME280;63173;49.086;33.418;2023-01-13T05:27:37;101487.59;;;-3.64;90.24
74578;BME280;63173;49.086;33.418;2023-01-13T05:30:04;101487.59;;;-3.56;90.20
74578;BME280;63173;49.086;33.418;2023-01-13T05:32:29;101488.06;;;-3.37;90.30
74578;BME280;63173;49.086;33.418;2023-01-13T05:34:55;101489.75;;;-3.52;90.22
74578;BME280;63173;49.086;33.418;2023-01-13T05:37:21;101487.09;;;-3.36;90.04
74578;BME280;63173;49.086;33.418;2023-01-13T05:39:47;101487.25;;;-3.37;89.80
74578;BME280;63173;49.086;33.418;2023-01-13T05:42:39;101483.75;;;-3.38;89.87
74578;BME280;63173;49.086;33.418;2023-01-13T05:45:23;101480.94;;;-3.36;89.54
74578;BME280;63173;49.086;33.418;2023-01-13T05:47:49;101484.25;;;-3.34;89.25
74578;BME280;63173;49.086;33.418;2023-01-13T05:50:14;101495.53;;;-3.40;89.97
74578;BME280;63173;49.086;33.418;2023-01-13T05:52:40;101483.75;;;-3.46;90.22
74578;BME280;63173;49.086;33.418;2023-01-13T05:55:06;101471.97;;;-3.51;90.73
74578;BME280;63173;49.086;33.418;2023-01-13T05:57:32;101482.94;;;-3.38;90.41
74578;BME280;63173;49.086;33.418;2023-01-13T05:59:57;101484.78;;;-3.39;90.14
74578;BME280;63173;49.086;33.418;2023-01-13T06:02:22;101487.44;;;-3.39;90.51
74578;BME280;63173;49.086;33.418;2023-01-13T06:04:48;101481.59;;;-3.18;90.14
74578;BME280;63173;49.086;33.418;2023-01-13T06:07:14;101490.34;;;-2.94;89.01
74578;BME280;63173;49.086;33.418;2023-01-13T06:09:39;101494.44;;;-2.83;88.94
74578;BME280;63173;49.086;33.418;2023-01-13T06:12:05;101490.28;;;-2.86;88.45
74578;BME280;63173;49.086;33.418;2023-01-13T06:14:30;101495.00;;;-3.04;88.69
74578;BME280;63173;49.086;33.418;2023-01-13T06:17:09;101484.88;;;-3.08;89.28
74578;BME280;63173;49.086;33.418;2023-01-13T06:19:35;101490.88;;;-3.14;89.82
74578;BME280;63173;49.086;33.418;2023-01-13T06:22:11;101500.44;;;-2.97;90.02
74578;BME280;63173;49.086;33.418;2023-01-13T06:24:38;101497.94;;;-2.82;89.79
74578;BME280;63173;49.086;33.418;2023-01-13T06:27:04;101501.88;;;-2.70;89.02
74578;BME280;63173;49.086;33.418;2023-01-13T06:29:30;101494.66;;;-3.01;89.52
74578;BME280;63173;49.086;33.418;2023-01-13T06:31:55;101504.97;;;-2.98;89.56
74578;BME280;63173;49.086;33.418;2023-01-13T06:34:22;101490.53;;;-3.03;89.98
74578;BME280;63173;49.086;33.418;2023-01-13T06:36:50;101500.97;;;-3.02;89.93
74578;BME280;63173;49.086;33.418;2023-01-13T06:39:20;101507.53;;;-2.73;90.16
74578;BME280;63173;49.086;33.418;2023-01-13T06:41:48;101508.09;;;-2.86;89.59
74578;BME280;63173;49.086;33.418;2023-01-13T06:44:33;101508.88;;;-2.69;89.18
74578;BME280;63173;49.086;33.418;2023-01-13T06:46:59;101510.59;;;-2.93;89.58
74578;BME280;63173;49.086;33.418;2023-01-13T06:49:24;101515.53;;;-2.73;89.60
74578;BME280;63173;49.086;33.418;2023-01-13T06:51:49;101518.84;;;-2.79;89.55
74578;BME280;63173;49.086;33.418;2023-01-13T06:54:15;101511.25;;;-2.91;89.21
74578;BME280;63173;49.086;33.418;2023-01-13T06:56:40;101521.69;;;-2.73;89.72
74578;BME280;63173;49.086;33.418;2023-01-13T06:59:06;101518.66;;;-2.70;89.90
74578;BME280;63173;49.086;33.418;2023-01-13T07:01:31;101517.31;;;-2.58;89.80
74578;BME280;63173;49.086;33.418;2023-01-13T07:03:57;101519.88;;;-2.80;89.72
74578;BME280;63173;49.086;33.418;2023-01-13T07:06:23;101517.38;;;-2.82;90.21
74578;BME280;63173;49.086;33.418;2023-01-13T07:08:48;101512.84;;;-2.65;89.72
74578;BME280;63173;49.086;33.418;2023-01-13T07:11:14;101521.63;;;-2.65;90.59
74578;BME280;63173;49.086;33.418;2023-01-13T07:13:39;101525.31;;;-2.66;90.20
74578;BME280;63173;49.086;33.418;2023-01-13T07:16:23;101519.13;;;-2.58;89.61
74578;BME280;63173;49.086;33.418;2023-01-13T07:18:48;101510.66;;;-2.54;89.70
74578;BME280;63173;49.086;33.418;2023-01-13T07:21:14;101520.28;;;-2.53;89.27
74578;BME280;63173;49.086;33.418;2023-01-13T07:23:43;101522.66;;;-2.27;88.82
74578;BME280;63173;49.086;33.418;2023-01-13T07:26:09;101523.59;;;-2.51;89.62
74578;BME280;63173;49.086;33.418;2023-01-13T07:28:35;101512.75;;;-2.41;89.80
74578;BME280;63173;49.086;33.418;2023-01-13T07:31:02;101512.09;;;-2.51;89.21
74578;BME280;63173;49.086;33.418;2023-01-13T07:33:27;101513.03;;;-2.36;90.15
74578;BME280;63173;49.086;33.418;2023-01-13T07:35:58;101522.31;;;-2.24;90.04
74578;BME280;63173;49.086;33.418;2023-01-13T07:38:24;101521.94;;;-2.21;88.89
74578;BME280;63173;49.086;33.418;2023-01-13T07:40:50;101518.25;;;-2.43;89.31
74578;BME280;63173;49.086;33.418;2023-01-13T07:43:16;101522.00;;;-2.29;90.61
74578;BME280;63173;49.086;33.418;2023-01-13T07:46:04;101530.03;;;-2.07;89.22
74578;BME280;63173;49.086;33.418;2023-01-13T07:48:33;101532.56;;;-2.13;89.22
74578;BME280;63173;49.086;33.418;2023-01-13T07:51:07;101540.44;;;-2.20;89.53
74578;BME280;63173;49.086;33.418;2023-01-13T07:53:33;101540.22;;;-2.49;90.13
74578;BME280;63173;49.086;33.418;2023-01-13T07:55:59;101536.69;;;-2.41;90.31
74578;BME280;63173;49.086;33.418;2023-01-13T07:58:26;101532.00;;;-2.31;89.57
74578;BME280;63173;49.086;33.418;2023-01-13T08:00:51;101536.50;;;-2.01;89.38
74578;BME280;63173;49.086;33.418;2023-01-13T08:03:17;101536.09;;;-1.90;89.77
74578;BME280;63173;49.086;33.418;2023-01-13T10:15:28;101457.72;;;-1.36;89.95
74578;BME280;63173;49.086;33.418;2023-01-13T10:17:55;101460.50;;;-1.66;88.14
74578;BME280;63173;49.086;33.418;2023-01-13T10:28:14;101461.75;;;-1.54;87.92
74578;BME280;63173;49.086;33.418;2023-01-13T10:30:45;101458.44;;;-1.56;87.30
74578;BME280;63173;49.086;33.418;2023-01-13T10:33:14;101446.84;;;-1.63;88.29
74578;BME280;63173;49.086;33.418;2023-01-13T10:35:51;101444.78;;;-1.39;88.09
74578;BME280;63173;49.086;33.418;2023-01-13T10:38:35;101449.19;;;-1.46;87.00
74578;BME280;63173;49.086;33.418;2023-01-13T10:43:30;101444.22;;;-1.49;87.71
74578;BME280;63173;49.086;33.418;2023-01-13T10:46:03;101436.34;;;-1.28;86.57
74578;BME280;63173;49.086;33.418;2023-01-13T10:48:37;101439.34;;;-1.45;87.81
74578;BME280;63173;49.086;33.418;2023-01-13T10:54:01;101435.06;;;-1.17;86.55
74578;BME280;63173;49.086;33.418;2023-01-13T10:56:32;101436.78;;;-1.39;86.88
74578;BME280;63173;49.086;33.418;2023-01-13T10:59:21;101433.81;;;-1.44;87.79
74578;BME280;63173;49.086;33.418;2023-01-13T11:02:00;101433.53;;;-1.49;87.32
74578;BME280;63173;49.086;33.418;2023-01-13T11:06:55;101440.03;;;-1.29;88.26
74578;BME280;63173;49.086;33.418;2023-01-13T11:09:21;101437.31;;;-1.58;87.60
74578;BME280;63173;49.086;33.418;2023-01-13T11:11:49;101435.47;;;-1.57;87.98
74578;BME280;63173;49.086;33.418;2023-01-13T11:14:24;101433.75;;;-1.36;88.46
74578;BME280;63173;49.086;33.418;2023-01-13T11:17:13;101426.97;;;-1.38;87.84
74578;BME280;63173;49.086;33.418;2023-01-13T11:22:45;101426.22;;;-1.47;87.36
74578;BME280;63173;49.086;33.418;2023-01-13T11:27:53;101421.53;;;-1.82;88.48
74578;BME280;63173;49.086;33.418;2023-01-13T11:35:50;101412.47;;;-1.73;89.15
74578;BME280;63173;49.086;33.418;2023-01-13T11:38:26;101413.13;;;-1.71;89.10
74578;BME280;63173;49.086;33.418;2023-01-13T11:40:58;101416.63;;;-1.56;88.82
74578;BME280;63173;49.086;33.418;2023-01-13T11:43:32;101415.53;;;-1.47;87.52
74578;BME280;63173;49.086;33.418;2023-01-13T11:46:00;101423.06;;;-1.50;87.72
74578;BME280;63173;49.086;33.418;2023-01-13T11:48:30;101414.41;;;-1.67;88.42
74578;BME280;63173;49.086;33.418;2023-01-13T12:02:30;101406.69;;;-1.62;87.56
74578;BME280;63173;49.086;33.418;2023-01-13T12:05:13;101411.06;;;-1.32;87.52
74578;BME280;63173;49.086;33.418;2023-01-13T12:24:06;101422.25;;;-1.36;87.20
74578;BME280;63173;49.086;33.418;2023-01-13T12:26:41;101422.44;;;-1.52;86.85
74578;BME280;63173;49.086;33.418;2023-01-13T12:29:14;101417.34;;;-1.62;87.91
74578;BME280;63173;49.086;33.418;2023-01-13T12:31:42;101420.66;;;-1.60;87.66
74578;BME280;63173;49.086;33.418;2023-01-13T12:34:30;101423.16;;;-1.58;86.90
74578;BME280;63173;49.086;33.418;2023-01-13T12:43:17;101428.59;;;-1.37;88.11
74578;BME280;63173;49.086;33.418;2023-01-13T12:56:55;101439.31;;;-1.60;88.21
74578;BME280;63173;49.086;33.418;2023-01-13T13:01:48;101436.59;;;-1.52;87.02
74578;BME280;63173;49.086;33.418;2023-01-13T13:04:19;101431.16;;;-1.44;87.21
74578;BME280;63173;49.086;33.418;2023-01-13T13:06:56;101442.91;;;-1.53;87.58
74578;BME280;63173;49.086;33.418;2023-01-13T13:09:32;101435.75;;;-1.52;86.87
74578;BME280;63173;49.086;33.418;2023-01-13T13:23:28;101446.25;;;-1.73;87.71
74578;BME280;63173;49.086;33.418;2023-01-13T13:37:08;101462.50;;;-1.68;86.65
74578;BME280;63173;49.086;33.418;2023-01-13T13:39:40;101459.44;;;-1.57;86.48
74578;BME280;63173;49.086;33.418;2023-01-13T13:42:33;101456.88;;;-1.51;86.92
74578;BME280;63173;49.086;33.418;2023-01-13T13:45:13;101458.44;;;-1.56;87.74
74578;BME280;63173;49.086;33.418;2023-01-13T13:47:59;101460.16;;;-1.63;87.58
74578;BME280;63173;49.086;33.418;2023-01-13T13:50:27;101456.44;;;-1.40;87.37
74578;BME280;63173;49.086;33.418;2023-01-13T13:53:02;101466.31;;;-1.63;87.04
74578;BME280;63173;49.086;33.418;2023-01-13T13:55:30;101466.66;;;-1.66;87.74
74578;BME280;63173;49.086;33.418;2023-01-13T13:57:58;101459.91;;;-1.54;87.74
74578;BME280;63173;49.086;33.418;2023-01-13T14:00:27;101459.03;;;-1.69;87.39
74578;BME280;63173;49.086;33.418;2023-01-13T16:05:18;101460.69;;;-1.68;91.09
74578;BME280;63173;49.086;33.418;2023-01-13T16:07:44;101461.09;;;-1.56;90.05
74578;BME280;63173;49.086;33.418;2023-01-13T16:10:22;101461.34;;;-1.66;90.50
74578;BME280;63173;49.086;33.418;2023-01-13T16:12:47;101461.34;;;-1.66;89.23
74578;BME280;63173;49.086;33.418;2023-01-13T16:15:15;101462.28;;;-1.59;89.18
74578;BME280;63173;49.086;33.418;2023-01-13T16:17:43;101454.03;;;-1.49;89.04
74578;BME280;63173;49.086;33.418;2023-01-13T16:20:16;101463.56;;;-1.55;89.38
74578;BME280;63173;49.086;33.418;2023-01-13T16:22:42;101459.84;;;-1.68;88.93
74578;BME280;63173;49.086;33.418;2023-01-13T16:25:20;101461.38;;;-1.51;88.99
74578;BME280;63173;49.086;33.418;2023-01-13T16:27:46;101470.56;;;-1.54;89.24
74578;BME280;63173;49.086;33.418;2023-01-13T16:30:33;101471.31;;;-1.45;89.19
74578;BME280;63173;49.086;33.418;2023-01-13T16:32:59;101462.22;;;-1.36;88.15
74578;BME280;63173;49.086;33.418;2023-01-13T16:35:25;101464.63;;;-1.41;87.73
74578;BME280;63173;49.086;33.418;2023-01-13T16:37:52;101464.75;;;-1.35;88.87
74578;BME280;63173;49.086;33.418;2023-01-13T16:40:23;101459.88;;;-1.31;87.55
74578;BME280;63173;49.086;33.418;2023-01-13T16:42:50;101469.03;;;-1.34;88.02
74578;BME280;63173;49.086;33.418;2023-01-13T16:45:16;101454.53;;;-1.46;88.27
74578;BME280;63173;49.086;33.418;2023-01-13T16:47:42;101460.13;;;-1.41;88.58
74578;BME280;63173;49.086;33.418;2023-01-13T16:53:00;101455.13;;;-1.44;88.00
74578;BME280;63173;49.086;33.418;2023-01-13T16:55:26;101445.72;;;-1.32;89.20
74578;BME280;63173;49.086;33.418;2023-01-13T16:57:52;101444.13;;;-1.41;88.23
74578;BME280;63173;49.086;33.418;2023-01-13T17:00:18;101445.78;;;-1.40;88.69
74578;BME280;63173;49.086;33.418;2023-01-13T17:02:44;101445.72;;;-1.32;89.00
74578;BME280;63173;49.086;33.418;2023-01-13T17:05:11;101442.31;;;-1.26;88.73
74578;BME280;63173;49.086;33.418;2023-01-13T17:07:36;101440.88;;;-1.14;87.96
74578;BME280;63173;49.086;33.418;2023-01-13T17:10:03;101443.34;;;-1.12;88.12
74578;BME280;63173;49.086;33.418;2023-01-13T17:12:28;101441.50;;;-1.12;88.48
74578;BME280;63173;49.086;33.418;2023-01-13T17:14:54;101446.00;;;-1.12;88.58
74578;BME280;63173;49.086;33.418;2023-01-13T17:17:21;101448.03;;;-1.14;87.16
74578;BME280;63173;49.086;33.418;2023-01-13T17:19:47;101440.56;;;-1.19;88.46
74578;BME280;63173;49.086;33.418;2023-01-13T17:22:13;101447.06;;;-1.36;88.82
74578;BME280;63173;49.086;33.418;2023-01-13T17:24:39;101442.41;;;-1.34;89.26
74578;BME280;63173;49.086;33.418;2023-01-13T17:27:04;101434.84;;;-1.30;88.62
74578;BME280;63173;49.086;33.418;2023-01-13T17:29:30;101440.50;;;-1.25;87.87
74578;BME280;63173;49.086;33.418;2023-01-13T17:31:57;101441.34;;;-1.10;87.92
74578;BME280;63173;49.086;33.418;2023-01-13T17:34:22;101431.66;;;-1.26;88.34
74578;BME280;63173;49.086;33.418;2023-01-13T17:36:48;101441.34;;;-1.10;88.86
74578;BME280;63173;49.086;33.418;2023-01-13T17:39:24;101437.81;;;-0.96;88.20
74578;BME280;63173;49.086;33.418;2023-01-13T17:41:51;101440.22;;;-1.01;88.24
74578;BME280;63173;49.086;33.418;2023-01-13T17:44:19;101444.91;;;-1.18;87.88
74578;BME280;63173;49.086;33.418;2023-01-13T17:46:46;101439.38;;;-1.02;87.76
74578;BME280;63173;49.086;33.418;2023-01-13T17:49:13;101438.66;;;-1.10;88.14
74578;BME280;63173;49.086;33.418;2023-01-13T17:51:38;101440.50;;;-1.11;87.25
74578;BME280;63173;49.086;33.418;2023-01-13T17:54:04;101437.63;;;-1.09;87.93
74578;BME280;63173;49.086;33.418;2023-01-13T17:56:29;101438.66;;;-1.10;87.68
74578;BME280;63173;49.086;33.418;2023-01-13T17:58:55;101423.59;;;-1.03;87.83
74578;BME280;63173;49.086;33.418;2023-01-13T18:01:21;101432.28;;;-0.95;87.35
74578;BME280;63173;49.086;33.418;2023-01-13T18:03:47;101428.53;;;-1.00;87.17
74578;BME280;63173;49.086;33.418;2023-01-13T18:06:16;101426.97;;;-0.95;86.66
74578;BME280;63173;49.086;33.418;2023-01-13T18:08:41;101433.03;;;-0.86;88.21
74578;BME280;63173;49.086;33.418;2023-01-13T18:11:07;101435.72;;;-0.86;87.26
74578;BME280;63173;49.086;33.418;2023-01-13T18:13:33;101432.69;;;-0.98;87.38
74578;BME280;63173;49.086;33.418;2023-01-13T18:16:04;101428.66;;;-1.08;87.58
74578;BME280;63173;49.086;33.418;2023-01-13T18:18:38;101425.78;;;-1.07;87.92
74578;BME280;63173;49.086;33.418;2023-01-13T18:21:05;101432.56;;;-1.04;87.65
74578;BME280;63173;49.086;33.418;2023-01-13T18:23:49;101430.47;;;-1.09;87.84
74578;BME280;63173;49.086;33.418;2023-01-13T18:26:36;101432.41;;;-1.03;87.76
74578;BME280;63173;49.086;33.418;2023-01-13T18:29:20;101425.78;;;-1.07;88.99
74578;BME280;63173;49.086;33.418;2023-01-13T18:31:45;101432.75;;;-1.06;88.69
74578;BME280;63173;49.086;33.418;2023-01-13T18:34:11;101441.88;;;-1.15;88.62
74578;BME280;63173;49.086;33.418;2023-01-13T18:36:37;101438.75;;;-1.04;89.13
74578;BME280;63173;49.086;33.418;2023-01-13T18:39:03;101430.28;;;-1.07;88.04
74578;BME280;63173;49.086;33.418;2023-01-13T18:41:29;101420.72;;;-0.87;88.43
74578;BME280;63173;49.086;33.418;2023-01-13T18:44:13;101428.91;;;-0.88;86.86
74578;BME280;63173;49.086;33.418;2023-01-13T18:46:38;101420.91;;;-1.03;87.79
74578;BME280;63173;49.086;33.418;2023-01-13T18:49:04;101435.25;;;-1.04;88.93
74578;BME280;63173;49.086;33.418;2023-01-13T18:51:29;101427.53;;;-0.99;87.64
74578;BME280;63173;49.086;33.418;2023-01-13T18:53:54;101426.69;;;-1.00;87.89
74578;BME280;63173;49.086;33.418;2023-01-13T18:56:20;101431.97;;;-1.06;88.00
74578;BME280;63173;49.086;33.418;2023-01-13T18:58:46;101436.44;;;-0.77;88.22
74578;BME280;63173;49.086;33.418;2023-01-13T19:01:23;101444.72;;;-0.72;88.02
74578;BME280;63173;49.086;33.418;2023-01-13T19:03:56;101436.81;;;-0.80;87.61
74578;BME280;63173;49.086;33.418;2023-01-13T19:06:22;101448.38;;;-0.73;87.68
74578;BME280;63173;49.086;33.418;2023-01-13T19:08:52;101442.03;;;-0.87;86.54
74578;BME280;63173;49.086;33.418;2023-01-13T19:11:20;101449.06;;;-1.01;88.02
74578;BME280;63173;49.086;33.418;2023-01-13T19:13:46;101434.63;;;-0.91;86.16
74578;BME280;63173;49.086;33.418;2023-01-13T19:16:12;101442.41;;;-0.75;86.65